Worcester, Wisconsin
Current Conditions -  °F | °C
As of 1:15 AM on Saturday 25 Oct 2014 (Local Time) from KPBH Reporting Station
Haze Haze  
Wind Chill: 53°   Ceiling: Unl
Heat Index: 53°   Visibility: 5mi
Dew Point: 52°   Wind: 6mph
Humidity: 96%   Direction: 250°WSW
Pressure: 29.82"   Gusts: NA
Location:  45.7439°N, 90.2959°W
Report Text: KPBH 250615Z AUTO 25005KT 5SM BR SCT008 12/11 A2982 RMK AO2 T01160110
Loading
Personal Weather Stations






























Interactive Weather Map
Tropical Storm Tracking
New forecast layout! Learn more

10-Day Weather Forecast

Advertisements
Track Severe Weather on mobile